Time;durP1;ratioP1;P1;durP2;ratioP2;P2;SDS_P1;SDS_P2;PMS_P1;PMS_P2;Temp;Humidity;BMP_temperature;BMP_pressure;BME280_temperature;BME280_humidity;BME280_pressure;Samples;Min_cycle;Max_cycle;Signal;HPM_P1;HPM_P2
2022/11/13 00:00:37;;;;;;;11.37;7.50;;;8.90;99.90;;;;;;5046307;28;20446;-78
2022/11/13 00:03:04;;;;;;;10.03;7.13;;;8.90;99.90;;;;;;5073317;28;20506;-78
2022/11/13 00:05:31;;;;;;;9.57;7.00;;;8.90;99.90;;;;;;5058764;28;20456;-79
2022/11/13 00:07:58;;;;;;;10.77;7.77;;;8.90;99.90;;;;;;5050269;28;20477;-78
2022/11/13 00:10:24;;;;;;;11.57;9.33;;;8.90;99.90;;;;;;5056635;28;20459;-79
2022/11/13 00:12:52;;;;;;;14.50;9.57;;;8.90;99.90;;;;;;5041243;28;20526;-79
2022/11/13 00:15:21;;;;;;;13.47;9.20;;;8.90;99.90;;;;;;5041508;28;20489;-78
2022/11/13 00:17:48;;;;;;;14.10;10.57;;;8.80;99.90;;;;;;5047649;28;20545;-79
2022/11/13 00:20:15;;;;;;;17.33;12.63;;;8.80;99.90;;;;;;5057564;28;20470;-79
2022/11/13 00:22:42;;;;;;;17.87;13.53;;;8.80;99.90;;;;;;5040459;28;20473;-79
2022/11/13 00:25:09;;;;;;;19.13;14.47;;;8.80;99.90;;;;;;5040920;28;20454;-79
2022/11/13 00:27:36;;;;;;;15.80;12.00;;;8.80;99.90;;;;;;5045595;28;20562;-79
2022/11/13 00:30:04;;;;;;;11.97;8.90;;;8.80;99.90;;;;;;5058946;28;20540;-77
2022/11/13 00:32:32;;;;;;;15.70;11.07;;;8.70;99.90;;;;;;5043353;28;20525;-78
2022/11/13 00:34:59;;;;;;;12.20;9.50;;;8.70;99.90;;;;;;5049234;28;20486;-78
2022/11/13 00:37:27;;;;;;;12.30;8.90;;;8.80;99.90;;;;;;5043076;28;21030;-77
2022/11/13 00:39:54;;;;;;;12.47;8.90;;;8.70;99.90;;;;;;5050642;28;20462;-78
2022/11/13 00:42:21;;;;;;;10.63;7.60;;;8.70;99.90;;;;;;5040252;28;20473;-78
2022/11/13 00:44:50;;;;;;;10.80;8.00;;;8.70;99.90;;;;;;5057563;28;20462;-77
2022/11/13 00:47:16;;;;;;;10.77;7.40;;;8.70;99.90;;;;;;5053807;28;20448;-79
2022/11/13 00:49:45;;;;;;;10.33;7.60;;;8.70;99.90;;;;;;5056478;28;20453;-78
2022/11/13 00:52:12;;;;;;;8.70;6.53;;;8.70;99.90;;;;;;5072212;22;20554;-79
2022/11/13 00:54:38;;;;;;;10.80;7.23;;;8.70;99.90;;;;;;5036190;28;20496;-79
2022/11/13 00:57:05;;;;;;;7.67;6.73;;;8.70;99.90;;;;;;5032450;28;20450;-80
2022/11/13 00:59:32;;;;;;;10.50;7.17;;;8.70;99.90;;;;;;5045441;28;20643;-81
2022/11/13 01:01:59;;;;;;;9.33;6.80;;;8.70;99.90;;;;;;5037945;28;20463;-82
2022/11/13 01:04:28;;;;;;;8.83;6.60;;;8.70;99.90;;;;;;5039721;28;20548;-81
2022/11/13 01:06:56;;;;;;;9.00;6.40;;;8.70;99.90;;;;;;5033135;28;20463;-82
2022/11/13 01:09:23;;;;;;;8.87;6.17;;;8.70;99.90;;;;;;5038954;28;20951;-82
2022/11/13 01:11:49;;;;;;;7.13;5.87;;;8.70;99.90;;;;;;5030866;28;20460;-82
2022/11/13 01:14:16;;;;;;;8.00;5.20;;;8.70;99.90;;;;;;5018532;28;20491;-80
2022/11/13 01:16:43;;;;;;;12.07;6.73;;;8.70;99.90;;;;;;5022711;28;20584;-80
2022/11/13 01:19:10;;;;;;;9.73;6.00;;;8.70;99.90;;;;;;5038276;28;20837;-78
2022/11/13 01:21:37;;;;;;;9.37;5.40;;;8.80;99.90;;;;;;5034048;28;20543;-80
2022/11/13 01:24:05;;;;;;;7.00;5.00;;;8.70;99.90;;;;;;5018545;28;20551;-82
2022/11/13 01:26:32;;;;;;;9.40;6.23;;;8.70;99.90;;;;;;5028956;28;20524;-81
2022/11/13 01:29:00;;;;;;;8.30;5.77;;;8.80;99.90;;;;;;5031068;28;20446;-81
2022/11/13 01:31:29;;;;;;;8.60;5.33;;;8.80;99.90;;;;;;5019801;28;20459;-81
2022/11/13 01:33:57;;;;;;;8.03;6.30;;;8.80;99.90;;;;;;5018874;28;20552;-82
2022/11/13 01:36:27;;;;;;;8.90;5.77;;;8.80;99.90;;;;;;5035606;28;20572;-82
2022/11/13 01:38:54;;;;;;;8.53;6.33;;;8.80;99.90;;;;;;5021735;28;20561;-80
2022/11/13 01:41:24;;;;;;;9.80;6.63;;;8.80;99.90;;;;;;5033389;28;20966;-79
2022/11/13 01:43:53;;;;;;;7.93;6.03;;;8.80;99.90;;;;;;5038378;28;20557;-81
2022/11/13 01:46:26;;;;;;;8.23;5.27;;;8.80;99.90;;;;;;5022854;28;20458;-79
2022/11/13 01:48:59;;;;;;;8.43;5.87;;;8.80;99.90;;;;;;5019066;28;20543;-82
2022/11/13 01:51:30;;;;;;;8.73;5.17;;;8.80;99.90;;;;;;5018507;28;20544;-82
2022/11/13 01:53:58;;;;;;;7.43;4.83;;;8.70;99.90;;;;;;5032244;28;20952;-80
2022/11/13 01:56:27;;;;;;;8.60;5.27;;;8.70;99.90;;;;;;5038432;28;20489;-82
2022/11/13 01:59:05;;;;;;;11.30;5.60;;;8.70;99.90;;;;;;5024927;28;20457;-82
2022/11/13 02:01:32;;;;;;;7.87;5.40;;;8.70;99.90;;;;;;5018010;28;20430;-81
2022/11/13 02:03:59;;;;;;;6.23;5.27;;;8.60;99.90;;;;;;5030869;28;20469;-81
2022/11/13 02:06:30;;;;;;;7.37;4.97;;;8.60;99.90;;;;;;5036711;28;20562;-81
2022/11/13 02:08:57;;;;;;;7.40;5.27;;;8.60;99.90;;;;;;5030720;28;20457;-80
2022/11/13 02:11:24;;;;;;;8.33;5.03;;;8.60;99.90;;;;;;5039940;28;20640;-81
2022/11/13 02:13:52;;;;;;;7.70;4.90;;;8.60;99.90;;;;;;5031978;28;20482;-80
2022/11/13 02:16:20;;;;;;;8.60;5.37;;;8.50;99.90;;;;;;5038961;28;20504;-80
2022/11/13 02:18:47;;;;;;;8.80;5.83;;;8.50;99.90;;;;;;5029684;28;20475;-80
2022/11/13 02:21:29;;;;;;;8.77;5.67;;;8.50;99.90;;;;;;5038218;28;20460;-80
2022/11/13 02:24:03;;;;;;;8.07;5.77;;;8.50;99.90;;;;;;5037975;28;20558;-80
2022/11/13 02:26:32;;;;;;;9.90;6.07;;;8.50;99.90;;;;;;5037729;28;20524;-82
2022/11/13 02:28:59;;;;;;;8.50;5.90;;;8.40;99.90;;;;;;5035760;28;20475;-81
2022/11/13 02:31:26;;;;;;;7.83;5.50;;;8.40;99.90;;;;;;5038946;28;20993;-81
2022/11/13 02:33:53;;;;;;;10.30;6.03;;;8.40;99.90;;;;;;5020583;28;20486;-81
2022/11/13 02:36:22;;;;;;;7.50;6.10;;;8.30;99.90;;;;;;5020094;28;20494;-79
2022/11/13 02:38:51;;;;;;;11.27;6.93;;;8.30;99.90;;;;;;5020809;28;20545;-81
2022/11/13 02:41:18;;;;;;;7.83;5.70;;;8.30;99.90;;;;;;5020499;28;20452;-82
2022/11/13 02:43:46;;;;;;;8.90;6.00;;;8.30;99.90;;;;;;5021064;28;20937;-82
2022/11/13 02:46:13;;;;;;;10.33;6.07;;;8.20;99.90;;;;;;5028671;28;20540;-83
2022/11/13 02:48:39;;;;;;;8.17;5.60;;;8.20;99.90;;;;;;5041513;28;20977;-81
2022/11/13 02:51:06;;;;;;;8.30;6.03;;;8.20;99.90;;;;;;5040351;28;20532;-80
2022/11/13 02:53:33;;;;;;;9.73;6.30;;;8.20;99.90;;;;;;5037931;28;20549;-82
2022/11/13 02:56:00;;;;;;;7.37;5.53;;;8.20;99.90;;;;;;5036120;28;20483;-81
2022/11/13 02:58:27;;;;;;;9.87;5.97;;;8.20;99.90;;;;;;5030640;28;20975;-82
2022/11/13 03:00:55;;;;;;;9.53;6.80;;;8.20;99.90;;;;;;5033462;28;20463;-79
2022/11/13 03:03:22;;;;;;;6.77;6.07;;;8.20;99.90;;;;;;5018367;28;20564;-79
2022/11/13 03:05:49;;;;;;;5.80;4.63;;;8.10;99.90;;;;;;5020689;28;20452;-80
2022/11/13 03:08:16;;;;;;;9.67;5.93;;;8.10;99.90;;;;;;5024647;28;20457;-82
2022/11/13 03:10:43;;;;;;;7.63;5.40;;;8.10;99.90;;;;;;5019956;28;20456;-81
2022/11/13 03:13:10;;;;;;;6.70;5.00;;;8.10;99.90;;;;;;5038853;28;21068;-81
2022/11/13 03:15:37;;;;;;;6.93;5.30;;;8.10;99.90;;;;;;5027375;28;20481;-81
2022/11/13 03:18:07;;;;;;;6.60;4.53;;;8.10;99.90;;;;;;5028585;28;20907;-80
2022/11/13 03:20:35;;;;;;;6.97;4.77;;;8.00;99.90;;;;;;5027960;28;20528;-80
2022/11/13 03:23:03;;;;;;;6.50;4.83;;;8.00;99.90;;;;;;5019250;28;20916;-81
2022/11/13 03:25:30;;;;;;;7.20;5.60;;;8.00;99.90;;;;;;5027841;28;20449;-79
2022/11/13 03:27:56;;;;;;;7.43;5.13;;;8.00;99.90;;;;;;5028751;28;20807;-82
2022/11/13 03:30:23;;;;;;;6.20;4.67;;;8.00;99.90;;;;;;5025352;28;20521;-80
2022/11/13 03:32:53;;;;;;;5.97;4.87;;;7.90;99.90;;;;;;5037348;28;20540;-81
2022/11/13 03:35:22;;;;;;;6.00;4.60;;;7.90;99.90;;;;;;5031064;28;20510;-80
2022/11/13 03:37:48;;;;;;;7.00;4.90;;;7.90;99.90;;;;;;5025825;28;20471;-82
2022/11/13 03:40:15;;;;;;;6.20;4.47;;;7.80;99.90;;;;;;5032131;28;20914;-80
2022/11/13 03:42:42;;;;;;;7.90;5.03;;;7.80;99.90;;;;;;5019294;28;20526;-79
2022/11/13 03:45:10;;;;;;;9.00;5.63;;;7.80;99.90;;;;;;5033666;28;20555;-82
2022/11/13 03:47:36;;;;;;;8.37;5.10;;;7.80;99.90;;;;;;5030671;28;20549;-80
2022/11/13 03:50:03;;;;;;;10.00;5.10;;;7.80;99.90;;;;;;5030981;28;21028;-80
2022/11/13 03:52:32;;;;;;;7.00;5.03;;;7.70;99.90;;;;;;5037323;28;20568;-81
2022/11/13 03:54:58;;;;;;;6.07;4.60;;;7.70;99.90;;;;;;5025084;28;20537;-78
2022/11/13 03:57:25;;;;;;;7.50;4.07;;;7.70;99.90;;;;;;5026298;28;20495;-82
2022/11/13 03:59:52;;;;;;;5.40;4.57;;;7.70;99.90;;;;;;5028726;28;20806;-80
2022/11/13 04:02:19;;;;;;;8.30;5.00;;;7.70;99.90;;;;;;5021253;28;20478;-79
2022/11/13 04:04:46;;;;;;;8.20;5.20;;;7.70;99.90;;;;;;5031214;28;21059;-82
2022/11/13 04:07:12;;;;;;;8.30;5.07;;;7.60;99.90;;;;;;5021497;28;20457;-80
2022/11/13 04:09:40;;;;;;;5.70;4.60;;;7.60;99.90;;;;;;5028514;28;20466;-79
2022/11/13 04:12:07;;;;;;;5.53;4.33;;;7.60;99.90;;;;;;5041189;28;20470;-80
2022/11/13 04:14:34;;;;;;;7.00;4.93;;;7.60;99.90;;;;;;5021613;28;20542;-81
2022/11/13 04:17:01;;;;;;;6.53;4.40;;;7.60;99.90;;;;;;5020889;28;20552;-80
2022/11/13 04:19:28;;;;;;;10.10;4.70;;;7.60;99.90;;;;;;5022086;28;20456;-81
2022/11/13 04:21:54;;;;;;;8.87;4.20;;;7.60;99.90;;;;;;5020718;28;20454;-81
2022/11/13 04:24:21;;;;;;;8.20;4.63;;;7.50;99.90;;;;;;5036533;28;20478;-81
2022/11/13 04:26:49;;;;;;;6.47;4.30;;;7.50;99.90;;;;;;5040051;28;20455;-81
2022/11/13 04:29:16;;;;;;;9.93;4.23;;;7.50;99.90;;;;;;5038469;28;20543;-79
2022/11/13 04:31:43;;;;;;;11.10;4.77;;;7.50;99.90;;;;;;5027819;28;20454;-82
2022/11/13 04:34:10;;;;;;;6.00;4.67;;;7.40;99.90;;;;;;5020569;28;20989;-80
2022/11/13 04:36:37;;;;;;;6.50;4.43;;;7.40;99.90;;;;;;5031044;28;20480;-79
2022/11/13 04:39:04;;;;;;;5.60;4.00;;;7.40;99.90;;;;;;5021718;28;20985;-80
2022/11/13 04:44:16;;;;;;;5.20;4.00;;;7.40;99.90;;;;;;5038298;28;20455;-79
2022/11/13 04:46:43;;;;;;;8.40;4.97;;;7.40;99.90;;;;;;5040764;28;20857;-82
2022/11/13 04:49:10;;;;;;;7.20;4.40;;;7.30;99.90;;;;;;5035595;28;20485;-81
2022/11/13 04:51:37;;;;;;;6.30;4.70;;;7.30;99.90;;;;;;5040705;28;20519;-80
2022/11/13 04:54:04;;;;;;;5.07;4.10;;;7.30;99.90;;;;;;5027434;28;20480;-81
2022/11/13 04:56:30;;;;;;;7.03;4.23;;;7.30;99.90;;;;;;5022911;28;20583;-79
2022/11/13 04:58:57;;;;;;;7.00;4.23;;;7.30;99.90;;;;;;5027462;28;20458;-82
2022/11/13 05:01:25;;;;;;;6.13;4.03;;;7.20;99.90;;;;;;5022877;28;20456;-82
2022/11/13 05:03:52;;;;;;;5.93;4.90;;;7.20;99.90;;;;;;5034109;28;20477;-82
2022/11/13 05:06:19;;;;;;;8.37;4.40;;;7.20;99.90;;;;;;5041199;28;20457;-80
2022/11/13 05:08:46;;;;;;;8.90;4.67;;;7.20;99.90;;;;;;5035436;28;20460;-82
2022/11/13 05:11:13;;;;;;;9.63;5.57;;;7.10;99.90;;;;;;5042976;28;20893;-82
2022/11/13 05:13:40;;;;;;;7.23;4.70;;;7.10;99.90;;;;;;5034540;28;20575;-82
2022/11/13 05:16:09;;;;;;;7.27;5.30;;;7.10;99.90;;;;;;5035484;28;20534;-82
2022/11/13 05:18:38;;;;;;;6.37;4.13;;;7.10;99.90;;;;;;5035900;28;20454;-80
2022/11/13 05:21:06;;;;;;;8.40;4.80;;;7.10;99.90;;;;;;5043657;28;20540;-81
2022/11/13 05:23:34;;;;;;;6.00;4.10;;;7.10;99.90;;;;;;5041858;28;21031;-81
2022/11/13 05:26:05;;;;;;;6.40;4.90;;;7.00;99.90;;;;;;5035471;28;20531;-81
2022/11/13 05:28:32;;;;;;;7.10;4.63;;;7.00;99.90;;;;;;5037132;28;20448;-81
2022/11/13 05:31:06;;;;;;;9.63;4.70;;;7.00;99.90;;;;;;5041966;28;20532;-82
2022/11/13 05:33:33;;;;;;;6.20;3.80;;;6.90;99.90;;;;;;5042418;28;20535;-80
2022/11/13 05:36:06;;;;;;;6.13;4.63;;;7.00;99.90;;;;;;5038983;28;20552;-82
2022/11/13 05:38:33;;;;;;;7.70;4.53;;;6.90;99.90;;;;;;5037849;28;20455;-83
2022/11/13 05:41:04;;;;;;;6.40;4.47;;;6.90;99.90;;;;;;5038969;28;20528;-81
2022/11/13 05:43:31;;;;;;;5.20;4.30;;;6.90;99.90;;;;;;5023633;28;20537;-80
2022/11/13 05:46:02;;;;;;;6.90;4.77;;;6.90;99.90;;;;;;5032944;28;20568;-83
2022/11/13 05:48:30;;;;;;;6.97;4.87;;;6.80;99.90;;;;;;5021786;28;20508;-80
2022/11/13 05:51:01;;;;;;;5.57;4.10;;;6.80;99.90;;;;;;5034170;28;20458;-81
2022/11/13 05:53:29;;;;;;;6.40;4.03;;;6.80;99.90;;;;;;5040833;28;20487;-82
2022/11/13 05:56:00;;;;;;;5.97;3.90;;;6.80;99.90;;;;;;5039221;28;20448;-81
2022/11/13 05:58:28;;;;;;;7.00;4.97;;;6.80;99.90;;;;;;5034430;28;20449;-82
2022/11/13 06:01:04;;;;;;;7.23;4.73;;;6.80;99.90;;;;;;5030597;28;20531;-81
2022/11/13 06:03:30;;;;;;;7.27;4.27;;;6.80;99.90;;;;;;5022183;28;20476;-81
2022/11/13 06:05:58;;;;;;;11.80;6.73;;;6.80;99.90;;;;;;5030414;28;20556;-80
2022/11/13 06:08:25;;;;;;;5.27;3.73;;;6.80;99.90;;;;;;5040528;28;20534;-82
2022/11/13 06:10:53;;;;;;;5.50;4.00;;;6.80;99.90;;;;;;5042193;28;20535;-80
2022/11/13 06:13:21;;;;;;;6.63;4.40;;;6.70;99.90;;;;;;5041296;28;20854;-79
2022/11/13 06:15:47;;;;;;;8.50;4.60;;;6.70;99.90;;;;;;5023431;28;20810;-81
2022/11/13 06:18:14;;;;;;;7.80;4.40;;;6.70;99.90;;;;;;5041262;28;20459;-79
2022/11/13 06:20:41;;;;;;;5.80;4.00;;;6.70;99.90;;;;;;5043457;28;20820;-81
2022/11/13 06:23:08;;;;;;;5.77;4.80;;;6.70;99.90;;;;;;5043397;28;20482;-81
2022/11/13 06:25:34;;;;;;;8.27;5.30;;;6.60;99.90;;;;;;5042305;28;20487;-82
2022/11/13 06:28:03;;;;;;;5.70;4.43;;;6.60;99.90;;;;;;5040161;28;20453;-84
2022/11/13 06:30:30;;;;;;;6.27;4.53;;;6.60;99.90;;;;;;5025430;28;20612;-83
2022/11/13 06:32:56;;;;;;;8.77;5.80;;;6.60;99.90;;;;;;5023251;28;20563;-82
2022/11/13 06:35:23;;;;;;;8.20;4.90;;;6.60;99.90;;;;;;5039343;28;20457;-81
2022/11/13 06:37:50;;;;;;;7.93;5.30;;;6.60;99.90;;;;;;5023725;28;20498;-83
2022/11/13 06:40:17;;;;;;;8.90;5.93;;;6.60;99.90;;;;;;5039302;28;20493;-81
2022/11/13 06:42:44;;;;;;;9.90;7.23;;;6.60;99.90;;;;;;5031104;28;20563;-81
2022/11/13 06:45:12;;;;;;;8.17;6.30;;;6.60;99.90;;;;;;5043614;28;20523;-80
2022/11/13 06:47:39;;;;;;;9.33;6.40;;;6.60;99.90;;;;;;5038211;28;21017;-81
2022/11/13 06:50:07;;;;;;;9.30;6.00;;;6.60;99.90;;;;;;5040413;28;20503;-81
2022/11/13 06:55:11;;;;;;;8.90;7.10;;;6.50;99.90;;;;;;5041272;28;20464;-77
2022/11/13 06:57:38;;;;;;;8.27;6.20;;;6.50;99.90;;;;;;5049878;28;20493;-77
2022/11/13 07:00:06;;;;;;;9.70;6.33;;;6.50;99.90;;;;;;5050693;28;20457;-77
2022/11/13 07:02:34;;;;;;;11.30;7.13;;;6.50;99.90;;;;;;5051478;28;20459;-77
2022/11/13 07:05:01;;;;;;;11.90;6.83;;;6.50;99.90;;;;;;5051626;28;20476;-77
2022/11/13 07:07:28;;;;;;;11.57;7.17;;;6.60;99.90;;;;;;5037558;28;20448;-77
2022/11/13 07:09:54;;;;;;;8.40;6.40;;;6.50;99.90;;;;;;5050437;28;20547;-77
2022/11/13 07:12:21;;;;;;;10.30;7.00;;;6.50;99.90;;;;;;5049241;28;20455;-77
2022/11/13 07:14:48;;;;;;;10.63;7.60;;;6.50;99.90;;;;;;5051332;28;20476;-77
2022/11/13 07:17:15;;;;;;;9.10;7.07;;;6.50;99.90;;;;;;5044373;28;20845;-77
2022/11/13 07:19:43;;;;;;;9.60;7.63;;;6.50;99.90;;;;;;5050574;28;20448;-78
2022/11/13 07:22:10;;;;;;;8.30;7.07;;;6.50;99.90;;;;;;5049914;28;20448;-77
2022/11/13 07:24:36;;;;;;;16.07;6.90;;;6.50;99.90;;;;;;5051290;28;20468;-77
2022/11/13 07:27:03;;;;;;;11.33;8.53;;;6.50;99.90;;;;;;5050000;28;20460;-77
2022/11/13 07:29:30;;;;;;;8.10;6.77;;;6.60;99.90;;;;;;5050934;28;20955;-76
2022/11/13 07:31:57;;;;;;;8.70;6.87;;;6.60;99.90;;;;;;5038827;28;20458;-77
2022/11/13 07:34:24;;;;;;;6.80;5.80;;;6.50;99.90;;;;;;5035197;28;20944;-77
2022/11/13 07:36:52;;;;;;;9.27;6.57;;;6.50;99.90;;;;;;5044823;28;20615;-77
2022/11/13 07:39:18;;;;;;;9.10;7.07;;;6.50;99.90;;;;;;5038251;28;20457;-77
2022/11/13 07:41:47;;;;;;;11.60;6.50;;;6.60;99.90;;;;;;5035608;28;20471;-76
2022/11/13 07:44:14;;;;;;;10.33;6.87;;;6.60;99.90;;;;;;5035615;28;20475;-77
2022/11/13 07:46:41;;;;;;;8.67;6.30;;;6.60;99.90;;;;;;5041241;28;20455;-77
2022/11/13 07:49:07;;;;;;;12.10;7.27;;;6.60;99.90;;;;;;5054876;28;20451;-77
2022/11/13 07:51:36;;;;;;;9.70;6.33;;;6.60;99.90;;;;;;5044038;28;21218;-77
2022/11/13 07:54:04;;;;;;;8.77;6.03;;;6.60;99.90;;;;;;5035415;28;20501;-77
2022/11/13 07:56:31;;;;;;;8.60;6.37;;;6.60;99.90;;;;;;5050047;28;20462;-77
2022/11/13 07:58:58;;;;;;;13.60;6.77;;;6.60;99.90;;;;;;5053732;28;20448;-77
2022/11/13 08:01:25;;;;;;;7.63;6.30;;;6.60;99.90;;;;;;5052020;28;20456;-77
2022/11/13 08:03:52;;;;;;;7.70;5.57;;;6.60;99.90;;;;;;5054304;28;20496;-77
2022/11/13 08:06:19;;;;;;;6.53;5.13;;;6.60;99.90;;;;;;5050023;28;20451;-77
2022/11/13 08:08:48;;;;;;;7.57;5.13;;;6.70;99.90;;;;;;5053092;28;20448;-77
2022/11/13 08:11:16;;;;;;;8.03;5.80;;;6.70;99.90;;;;;;5052163;28;20951;-78
2022/11/13 08:13:43;;;;;;;8.43;6.00;;;6.70;99.90;;;;;;5053143;28;20493;-77
2022/11/13 08:16:10;;;;;;;6.37;5.07;;;6.70;99.90;;;;;;5052467;28;20446;-77
2022/11/13 08:18:37;;;;;;;14.83;7.53;;;6.80;99.90;;;;;;5051599;28;20483;-77
2022/11/13 08:21:07;;;;;;;11.87;7.93;;;6.80;99.90;;;;;;5053225;28;20457;-77
2022/11/13 08:23:37;;;;;;;10.10;6.80;;;6.90;99.90;;;;;;5053258;28;21362;-77
2022/11/13 08:26:05;;;;;;;9.60;6.87;;;6.90;99.90;;;;;;5051030;28;20452;-77
2022/11/13 08:28:34;;;;;;;9.40;6.70;;;7.00;99.90;;;;;;5046736;28;20471;-77
2022/11/13 08:31:03;;;;;;;11.00;7.37;;;7.10;99.90;;;;;;5050048;28;20459;-77
2022/11/13 08:33:30;;;;;;;9.27;6.30;;;7.10;99.90;;;;;;5052988;28;20844;-77
2022/11/13 08:36:00;;;;;;;9.73;5.73;;;7.20;99.90;;;;;;5053100;28;20698;-77
2022/11/13 08:38:27;;;;;;;7.07;6.00;;;7.20;99.90;;;;;;5053208;28;20575;-77
2022/11/13 08:40:56;;;;;;;7.83;5.60;;;7.30;99.90;;;;;;5051020;28;20963;-77
2022/11/13 08:43:23;;;;;;;7.57;5.40;;;7.30;99.90;;;;;;5054608;28;20470;-77
2022/11/13 08:45:51;;;;;;;7.30;5.00;;;7.40;99.90;;;;;;5054264;28;20462;-77
2022/11/13 08:48:18;;;;;;;9.20;5.57;;;7.40;99.90;;;;;;5060173;28;20453;-77
2022/11/13 08:50:45;;;;;;;7.37;5.23;;;7.50;99.90;;;;;;5058390;28;20451;-76
2022/11/13 08:53:12;;;;;;;7.63;5.40;;;7.60;99.90;;;;;;5054318;28;20475;-77
2022/11/13 08:55:38;;;;;;;7.60;4.83;;;7.60;99.90;;;;;;5054360;28;20913;-77
2022/11/13 08:58:05;;;;;;;7.67;5.80;;;7.70;99.90;;;;;;5052708;28;20483;-77
2022/11/13 09:00:32;;;;;;;7.27;4.77;;;7.70;99.90;;;;;;5054302;28;20444;-76
2022/11/13 09:03:01;;;;;;;7.83;5.30;;;7.80;99.90;;;;;;5053966;28;20452;-77
2022/11/13 09:05:28;;;;;;;11.00;5.57;;;7.90;99.90;;;;;;5051978;28;20455;-77
2022/11/13 09:07:57;;;;;;;7.23;5.27;;;7.90;99.90;;;;;;5049989;28;20456;-77
2022/11/13 09:10:24;;;;;;;6.53;4.70;;;8.00;99.90;;;;;;5034394;28;20453;-76
2022/11/13 09:12:56;;;;;;;8.63;6.20;;;8.10;99.90;;;;;;5037016;28;20462;-77
2022/11/13 09:15:23;;;;;;;6.13;5.40;;;8.10;99.90;;;;;;5053634;28;20480;-77
2022/11/13 09:17:50;;;;;;;9.43;5.90;;;8.20;99.90;;;;;;5046027;28;20486;-77
2022/11/13 09:20:18;;;;;;;11.60;4.97;;;8.20;99.90;;;;;;5039181;28;20856;-77
2022/11/13 09:22:45;;;;;;;8.27;4.53;;;8.30;99.90;;;;;;5042316;28;20882;-77
2022/11/13 09:25:12;;;;;;;10.30;6.00;;;8.30;99.90;;;;;;5051041;28;20470;-77
2022/11/13 09:27:38;;;;;;;6.87;5.23;;;8.30;99.90;;;;;;5041959;28;20445;-77
2022/11/13 09:30:06;;;;;;;8.20;5.43;;;8.40;99.90;;;;;;5048269;28;20971;-77
2022/11/13 09:32:33;;;;;;;7.77;5.37;;;8.40;99.90;;;;;;5053556;28;20979;-77
2022/11/13 09:35:00;;;;;;;8.53;5.80;;;8.50;99.90;;;;;;5043251;28;20559;-77
2022/11/13 09:37:31;;;;;;;7.00;5.30;;;8.60;99.90;;;;;;5047967;28;20488;-77
2022/11/13 09:39:58;;;;;;;7.50;5.70;;;8.60;99.90;;;;;;5052596;28;20509;-77
2022/11/13 09:42:27;;;;;;;7.80;5.63;;;8.70;99.90;;;;;;5053838;28;20448;-77
2022/11/13 09:44:59;;;;;;;7.70;5.77;;;8.70;99.90;;;;;;5053583;28;20488;-77
2022/11/13 09:47:31;;;;;;;6.60;5.90;;;8.80;99.90;;;;;;5046881;28;20452;-77
2022/11/13 09:50:03;;;;;;;12.10;5.83;;;8.80;99.90;;;;;;5045164;28;20463;-77
2022/11/13 09:52:36;;;;;;;7.20;5.40;;;8.90;99.90;;;;;;5050828;28;20449;-77
2022/11/13 09:55:03;;;;;;;10.03;6.27;;;9.00;99.90;;;;;;5053025;28;20480;-77
2022/11/13 09:57:42;;;;;;;10.63;6.17;;;9.00;99.90;;;;;;5050451;28;20489;-77
2022/11/13 10:00:13;;;;;;;13.20;7.13;;;9.10;99.90;;;;;;5049846;28;20454;-77
2022/11/13 10:02:53;;;;;;;8.47;6.57;;;9.10;99.90;;;;;;5051377;28;20544;-77
2022/11/13 10:05:29;;;;;;;11.87;7.07;;;9.20;99.90;;;;;;5051998;28;20510;-77
2022/11/13 10:08:07;;;;;;;8.33;6.97;;;9.30;99.90;;;;;;5043888;28;20449;-77
2022/11/13 10:10:50;;;;;;;9.27;5.97;;;9.40;99.90;;;;;;5053236;28;20459;-77
2022/11/13 10:13:21;;;;;;;10.37;6.87;;;9.40;99.90;;;;;;5052691;28;21054;-77
2022/11/13 10:15:51;;;;;;;7.70;6.50;;;9.50;99.90;;;;;;5055891;28;20441;-78
2022/11/13 10:18:22;;;;;;;8.30;5.83;;;9.60;99.90;;;;;;5050331;28;20595;-78
2022/11/13 10:20:53;;;;;;;9.37;7.10;;;9.60;99.90;;;;;;5052566;28;20860;-77
2022/11/13 10:23:22;;;;;;;8.07;6.60;;;9.70;99.90;;;;;;5051864;28;20483;-78
2022/11/13 10:25:53;;;;;;;7.80;6.90;;;9.80;99.90;;;;;;5045521;28;20458;-77
2022/11/13 10:28:22;;;;;;;8.70;6.40;;;9.90;99.90;;;;;;5051180;28;20545;-77
2022/11/13 10:30:49;;;;;;;7.13;5.50;;;10.00;99.90;;;;;;5052063;28;20446;-77
2022/11/13 10:33:18;;;;;;;6.20;5.50;;;10.10;99.90;;;;;;5053344;28;20493;-78
2022/11/13 10:35:53;;;;;;;6.63;5.47;;;10.30;99.90;;;;;;5051656;28;20461;-77
2022/11/13 10:38:32;;;;;;;11.00;6.00;;;10.40;99.90;;;;;;5055775;28;20473;-77
2022/11/13 10:41:08;;;;;;;11.23;6.70;;;10.50;99.90;;;;;;5050986;28;20497;-78
2022/11/13 10:43:35;;;;;;;7.77;6.40;;;10.60;99.90;;;;;;5044377;28;20489;-77
2022/11/13 10:46:04;;;;;;;7.83;5.90;;;10.60;99.90;;;;;;5050976;28;20464;-78
2022/11/13 10:48:33;;;;;;;8.00;6.10;;;10.70;99.90;;;;;;5049131;28;20837;-78
2022/11/13 10:51:02;;;;;;;8.33;6.37;;;10.80;99.90;;;;;;5050224;28;20454;-78
2022/11/13 10:53:38;;;;;;;10.60;6.70;;;10.90;99.90;;;;;;5048027;28;20482;-78
2022/11/13 10:56:20;;;;;;;9.70;7.10;;;11.10;99.90;;;;;;5049840;28;20500;-78
2022/11/13 10:59:00;;;;;;;9.17;7.43;;;11.20;99.90;;;;;;5048902;28;20523;-77
2022/11/13 11:01:28;;;;;;;9.03;6.77;;;11.50;99.90;;;;;;5059240;28;20485;-78
2022/11/13 11:03:54;;;;;;;7.73;6.90;;;12.00;99.90;;;;;;5051027;28;20987;-77
2022/11/13 11:06:32;;;;;;;7.73;6.63;;;12.70;99.90;;;;;;5049867;28;20462;-78
2022/11/13 11:09:16;;;;;;;8.27;5.60;;;14.50;99.90;;;;;;5054731;28;20454;-77
2022/11/13 11:15:04;;;;;;;6.30;5.70;;;20.00;99.90;;;;;;5029685;28;20463;-78
2022/11/13 11:17:41;;;;;;;5.37;4.50;;;22.50;99.90;;;;;;5047639;28;20443;-77
2022/11/13 11:20:20;;;;;;;7.47;5.27;;;24.20;99.90;;;;;;5054905;28;20459;-78
2022/11/13 11:22:51;;;;;;;7.13;4.93;;;25.50;99.90;;;;;;5040607;28;21036;-78
2022/11/13 11:25:29;;;;;;;9.73;5.33;;;26.50;99.90;;;;;;5056196;28;20444;-78
2022/11/13 11:28:04;;;;;;;5.60;4.83;;;27.30;94.30;;;;;;5052536;28;20453;-79
2022/11/13 11:30:36;;;;;;;5.20;4.50;;;27.70;93.90;;;;;;5051175;28;20461;-78
2022/11/13 11:33:09;;;;;;;5.83;4.83;;;28.10;91.10;;;;;;5055601;28;21192;-78
2022/11/13 11:35:41;;;;;;;7.20;5.00;;;28.40;88.00;;;;;;5054418;28;20459;-78
2022/11/13 11:38:13;;;;;;;7.00;5.03;;;28.50;82.30;;;;;;5051789;28;20486;-78
2022/11/13 11:40:44;;;;;;;6.40;4.83;;;28.70;83.40;;;;;;5049641;28;20451;-78
2022/11/13 11:43:19;;;;;;;5.03;4.50;;;29.00;80.90;;;;;;5055411;28;20544;-78
2022/11/13 11:45:47;;;;;;;5.10;4.40;;;29.20;78.70;;;;;;5056471;28;20451;-77
2022/11/13 11:48:16;;;;;;;5.60;4.20;;;29.40;76.20;;;;;;5055673;28;20988;-78
2022/11/13 11:50:49;;;;;;;5.60;4.40;;;29.40;73.70;;;;;;5055041;28;20448;-79
2022/11/13 11:53:24;;;;;;;4.20;3.80;;;29.50;74.00;;;;;;5050809;28;20987;-78
2022/11/13 11:56:09;;;;;;;5.00;4.47;;;29.40;72.10;;;;;;5056322;28;20458;-78
2022/11/13 11:58:54;;;;;;;5.00;4.10;;;28.70;72.80;;;;;;5039828;28;20545;-78
2022/11/13 12:01:42;;;;;;;5.43;4.93;;;28.10;72.90;;;;;;5047459;28;20452;-78
2022/11/13 12:04:25;;;;;;;6.10;4.57;;;27.70;73.40;;;;;;5050908;28;20482;-79
2022/11/13 12:07:02;;;;;;;4.50;3.60;;;26.60;72.90;;;;;;5057856;28;20532;-78
2022/11/13 12:09:31;;;;;;;6.20;4.00;;;25.00;76.00;;;;;;5048583;28;20449;-79
2022/11/13 12:12:18;;;;;;;5.23;4.37;;;23.50;78.50;;;;;;5049640;28;20486;-78
2022/11/13 12:14:56;;;;;;;5.20;4.20;;;22.20;82.40;;;;;;5039374;28;20478;-78
2022/11/13 12:17:39;;;;;;;7.53;3.87;;;21.30;86.20;;;;;;5052995;28;20557;-78
2022/11/13 12:20:19;;;;;;;4.27;3.70;;;20.60;90.20;;;;;;5049647;28;20443;-78
2022/11/13 12:22:57;;;;;;;5.47;4.50;;;19.90;91.10;;;;;;5043684;28;20951;-78
2022/11/13 12:25:30;;;;;;;6.17;4.33;;;19.40;97.00;;;;;;5052867;28;20454;-78
2022/11/13 12:28:06;;;;;;;7.70;6.03;;;18.90;99.90;;;;;;5054218;28;20455;-78
2022/11/13 12:30:41;;;;;;;7.23;5.80;;;18.50;99.90;;;;;;5050456;28;20486;-78
2022/11/13 12:33:22;;;;;;;10.23;5.60;;;18.30;99.90;;;;;;5055752;28;20466;-78
2022/11/13 12:35:52;;;;;;;8.33;5.80;;;18.20;99.90;;;;;;5060603;28;20462;-78
2022/11/13 12:38:30;;;;;;;7.07;5.23;;;18.30;99.90;;;;;;5054541;28;20490;-78
2022/11/13 12:41:05;;;;;;;6.53;4.70;;;18.10;99.90;;;;;;5053335;28;20458;-78
2022/11/13 12:43:59;;;;;;;6.27;4.00;;;17.90;99.90;;;;;;5065063;28;20494;-78
2022/11/13 12:46:35;;;;;;;6.63;4.33;;;17.70;99.90;;;;;;5051259;28;20457;-78
2022/11/13 12:49:04;;;;;;;4.57;3.40;;;17.30;99.90;;;;;;5057938;28;20478;-77
2022/11/13 12:51:39;;;;;;;4.97;3.53;;;17.30;99.90;;;;;;5044470;28;20521;-77
2022/11/13 12:56:34;;;;;;;6.50;4.50;;;16.90;99.90;;;;;;5060015;28;20471;-80
2022/11/13 12:59:06;;;;;;;6.53;4.37;;;16.70;99.90;;;;;;5062192;28;20494;-82
2022/11/13 13:01:35;;;;;;;6.37;4.00;;;16.50;99.90;;;;;;5063221;28;20462;-80
2022/11/13 13:04:33;;;;;;;8.63;4.20;;;16.30;99.90;;;;;;5059527;28;21187;-82
2022/11/13 13:07:13;;;;;;;6.30;4.33;;;16.00;99.90;;;;;;5040438;28;20522;-81
2022/11/13 13:09:49;;;;;;;4.90;3.40;;;15.80;99.90;;;;;;5041218;28;20465;-80
2022/11/13 13:12:24;;;;;;;4.20;3.17;;;15.60;99.90;;;;;;5041028;28;20449;-81
2022/11/13 13:15:05;;;;;;;6.97;3.90;;;15.40;99.90;;;;;;5046444;28;20510;-79